Time;durP1;ratioP1;P1;durP2;ratioP2;P2;SDS_P1;SDS_P2;PMS_P1;PMS_P2;Temp;Humidity;BMP_temperature;BMP_pressure;BME280_temperature;BME280_humidity;BME280_pressure;Samples;Min_cycle;Max_cycle;Signal;HPM_P1;HPM_P2
2021/09/23 00:00:22;;;;;;;10.52;5.03;;;13.60;91.50;;;;;;5064331;28;20049;-60
2021/09/23 00:05:24;;;;;;;8.68;4.85;;;13.50;91.30;;;;;;5047638;28;20600;-60
2021/09/23 00:07:52;;;;;;;7.30;4.38;;;13.50;91.80;;;;;;5067551;28;20136;-60
2021/09/23 00:10:23;;;;;;;10.45;5.38;;;13.50;91.30;;;;;;5066603;28;20132;-60
2021/09/23 00:12:50;;;;;;;9.25;5.00;;;13.50;91.70;;;;;;5068167;28;20052;-60
2021/09/23 00:15:17;;;;;;;7.13;4.80;;;13.50;91.30;;;;;;5067795;28;20103;-60
2021/09/23 00:17:49;;;;;;;8.35;4.85;;;13.50;91.40;;;;;;5067226;28;20059;-60
2021/09/23 00:20:23;;;;;;;6.90;4.97;;;13.50;91.60;;;;;;5067972;28;20155;-60
2021/09/23 00:22:50;;;;;;;8.20;5.50;;;13.50;91.80;;;;;;5048089;28;20292;-60
2021/09/23 00:25:17;;;;;;;10.98;5.53;;;13.50;91.50;;;;;;5064219;28;20118;-60
2021/09/23 00:27:45;;;;;;;6.57;5.22;;;13.50;91.50;;;;;;5064293;28;20052;-60
2021/09/23 00:30:12;;;;;;;8.57;6.10;;;13.50;91.40;;;;;;5065416;28;20060;-61
2021/09/23 00:32:39;;;;;;;6.55;5.20;;;13.50;91.40;;;;;;5066760;28;20041;-61
2021/09/23 00:35:06;;;;;;;7.32;4.88;;;13.50;91.20;;;;;;5067662;28;20521;-60
2021/09/23 00:37:33;;;;;;;7.75;5.43;;;13.50;91.30;;;;;;5067783;28;20442;-61
2021/09/23 00:40:00;;;;;;;5.60;4.57;;;13.50;91.40;;;;;;5066160;28;20079;-60
2021/09/23 00:42:26;;;;;;;7.75;5.55;;;13.40;91.50;;;;;;5067160;28;20450;-60
2021/09/23 00:44:54;;;;;;;9.90;5.93;;;13.50;91.30;;;;;;5066395;28;20131;-60
2021/09/23 00:47:21;;;;;;;7.63;6.00;;;13.40;91.50;;;;;;5066352;28;20075;-60
2021/09/23 00:49:48;;;;;;;8.70;5.63;;;13.40;91.70;;;;;;5042977;28;20454;-61
2021/09/23 00:52:15;;;;;;;6.68;5.70;;;13.40;91.50;;;;;;5067253;28;20552;-60
2021/09/23 00:54:43;;;;;;;8.90;5.47;;;13.40;91.50;;;;;;5049695;28;20968;-60
2021/09/23 00:57:09;;;;;;;7.78;5.68;;;13.40;91.40;;;;;;5066805;28;20076;-61
2021/09/23 00:59:36;;;;;;;11.15;6.25;;;13.30;91.40;;;;;;5066752;28;20048;-64
2021/09/23 01:02:03;;;;;;;8.60;6.03;;;13.30;91.90;;;;;;5064697;28;20239;-61
2021/09/23 01:04:30;;;;;;;7.57;6.20;;;13.20;91.40;;;;;;5063610;28;20044;-60
2021/09/23 01:06:56;;;;;;;8.32;5.70;;;13.20;91.40;;;;;;5064111;28;20060;-60
2021/09/23 01:09:23;;;;;;;6.72;5.72;;;13.20;91.60;;;;;;5066161;28;20569;-60
2021/09/23 01:11:50;;;;;;;10.10;7.13;;;13.20;91.50;;;;;;5066454;28;20883;-60
2021/09/23 01:14:17;;;;;;;8.48;6.20;;;13.20;91.80;;;;;;5066981;28;20052;-60
2021/09/23 01:16:43;;;;;;;9.52;6.45;;;13.10;91.90;;;;;;5065693;28;20114;-60
2021/09/23 01:19:11;;;;;;;8.70;6.97;;;13.10;91.80;;;;;;5065852;28;20044;-60
2021/09/23 01:21:37;;;;;;;11.00;7.47;;;13.10;92.00;;;;;;5066739;28;20059;-60
2021/09/23 01:24:04;;;;;;;13.27;6.65;;;13.10;92.10;;;;;;5067287;28;20143;-60
2021/09/23 01:26:31;;;;;;;7.90;6.10;;;13.00;92.20;;;;;;5066630;28;20049;-60
2021/09/23 01:28:58;;;;;;;11.70;6.63;;;13.10;92.30;;;;;;5074467;28;20048;-59
2021/09/23 01:31:24;;;;;;;8.88;6.85;;;13.00;92.10;;;;;;5075439;28;20079;-59
2021/09/23 01:33:51;;;;;;;8.88;6.05;;;13.00;92.10;;;;;;5067072;28;20436;-59
2021/09/23 01:36:18;;;;;;;7.63;6.82;;;13.00;92.20;;;;;;5068122;28;20606;-60
2021/09/23 01:38:45;;;;;;;8.40;6.35;;;12.90;92.50;;;;;;5048031;28;20052;-60
2021/09/23 01:41:12;;;;;;;11.18;6.90;;;12.90;92.50;;;;;;5052055;28;20105;-60
2021/09/23 01:43:38;;;;;;;9.10;6.15;;;12.90;92.80;;;;;;5066706;28;20049;-60
2021/09/23 01:46:05;;;;;;;7.65;5.60;;;12.90;92.70;;;;;;5048324;28;20131;-59
2021/09/23 01:48:32;;;;;;;10.18;5.60;;;12.90;93.00;;;;;;5058913;28;20438;-60
2021/09/23 01:50:59;;;;;;;7.20;5.55;;;12.90;93.00;;;;;;5066772;28;20430;-60
2021/09/23 01:53:25;;;;;;;10.07;6.18;;;12.90;92.80;;;;;;5048892;28;20135;-60
2021/09/23 01:55:52;;;;;;;8.35;5.65;;;12.90;92.90;;;;;;5063859;28;20469;-59
2021/09/23 01:58:19;;;;;;;9.55;6.13;;;12.90;92.80;;;;;;5066266;28;20098;-59
2021/09/23 02:00:46;;;;;;;7.85;5.50;;;12.90;92.90;;;;;;5065278;28;20468;-59
2021/09/23 02:03:13;;;;;;;8.50;6.30;;;12.90;92.90;;;;;;5065588;28;20044;-60
2021/09/23 02:05:40;;;;;;;7.15;4.97;;;13.00;92.90;;;;;;5066265;28;20044;-60
2021/09/23 02:08:07;;;;;;;5.45;4.93;;;13.00;93.10;;;;;;5065419;28;20052;-59
2021/09/23 02:10:34;;;;;;;11.13;6.00;;;13.00;93.10;;;;;;5063408;28;20075;-59
2021/09/23 02:13:00;;;;;;;7.15;4.80;;;13.00;92.90;;;;;;5065619;28;20052;-60
2021/09/23 02:15:27;;;;;;;6.38;4.82;;;13.00;92.70;;;;;;5065930;28;20572;-60
2021/09/23 02:17:54;;;;;;;6.53;4.78;;;13.00;93.00;;;;;;5065813;28;20518;-59
2021/09/23 02:20:21;;;;;;;7.05;5.13;;;13.00;92.90;;;;;;5064956;28;20067;-59
2021/09/23 02:25:29;;;;;;;5.18;4.57;;;12.90;92.70;;;;;;5130690;22;20053;-60
2021/09/23 02:27:56;;;;;;;8.35;4.72;;;12.90;92.80;;;;;;5022456;28;20407;-60
2021/09/23 02:30:24;;;;;;;7.78;4.97;;;12.90;92.70;;;;;;5025712;28;20049;-60
2021/09/23 02:32:51;;;;;;;7.13;5.15;;;12.90;92.90;;;;;;5026510;28;20049;-60
2021/09/23 02:35:17;;;;;;;7.93;5.68;;;12.90;92.70;;;;;;5024692;28;20337;-60
2021/09/23 02:37:44;;;;;;;6.70;5.28;;;12.90;92.80;;;;;;5026239;28;20786;-60
2021/09/23 02:40:12;;;;;;;8.15;5.32;;;12.90;92.80;;;;;;5023270;28;20144;-59
2021/09/23 02:42:38;;;;;;;5.63;5.00;;;12.90;92.70;;;;;;5025510;28;20041;-60
2021/09/23 02:45:06;;;;;;;6.63;4.95;;;12.90;92.80;;;;;;5025637;28;20570;-60
2021/09/23 02:47:32;;;;;;;5.10;4.60;;;12.90;92.70;;;;;;5013200;28;20494;-60
2021/09/23 02:49:59;;;;;;;6.00;5.07;;;12.90;92.60;;;;;;5025760;28;20106;-60
2021/09/23 02:52:26;;;;;;;5.85;4.75;;;13.00;92.70;;;;;;5023412;28;20049;-60
2021/09/23 02:54:53;;;;;;;7.03;4.90;;;13.00;92.50;;;;;;5024730;28;20622;-60
2021/09/23 02:57:19;;;;;;;6.20;4.88;;;13.10;92.30;;;;;;5026327;28;20452;-60
2021/09/23 02:59:46;;;;;;;6.97;4.95;;;13.20;92.10;;;;;;5026443;28;20439;-60
2021/09/23 03:02:13;;;;;;;6.30;4.97;;;13.30;91.90;;;;;;5026829;28;20136;-60
2021/09/23 03:04:40;;;;;;;8.60;5.38;;;13.50;91.70;;;;;;5026794;28;20336;-60
2021/09/23 03:07:07;;;;;;;7.03;6.32;;;13.50;91.50;;;;;;5026402;28;20045;-60
2021/09/23 03:09:33;;;;;;;7.55;6.80;;;13.60;91.30;;;;;;5026115;28;20372;-60
2021/09/23 03:12:00;;;;;;;7.47;6.68;;;13.70;91.20;;;;;;5024866;28;20120;-60
2021/09/23 03:14:27;;;;;;;8.55;6.80;;;13.70;91.00;;;;;;5026548;28;20080;-60
2021/09/23 03:16:54;;;;;;;8.10;7.30;;;13.80;91.10;;;;;;5026374;28;20077;-60
2021/09/23 03:19:20;;;;;;;7.82;7.03;;;13.80;90.80;;;;;;5026546;28;20049;-60
2021/09/23 03:21:47;;;;;;;7.93;7.05;;;13.90;90.70;;;;;;5025953;28;20145;-60
2021/09/23 03:24:14;;;;;;;8.52;7.72;;;13.90;90.70;;;;;;5026573;28;20061;-60
2021/09/23 03:26:40;;;;;;;8.65;6.55;;;14.00;90.70;;;;;;5024737;28;20045;-60
2021/09/23 03:29:07;;;;;;;6.95;6.07;;;14.00;90.60;;;;;;5024786;28;20115;-60
2021/09/23 03:31:35;;;;;;;6.65;5.95;;;14.10;90.40;;;;;;5024551;28;20088;-60
2021/09/23 03:34:02;;;;;;;6.55;5.85;;;14.00;90.40;;;;;;5026883;28;20050;-60
2021/09/23 03:36:29;;;;;;;8.20;6.45;;;14.10;90.30;;;;;;5025937;28;20085;-60
2021/09/23 03:38:56;;;;;;;7.57;6.07;;;14.10;90.30;;;;;;5024996;28;20188;-60
2021/09/23 03:41:23;;;;;;;7.18;5.90;;;14.20;90.20;;;;;;5024065;28;20049;-60
2021/09/23 03:43:50;;;;;;;6.57;5.93;;;14.20;90.20;;;;;;5026118;28;20050;-60
2021/09/23 03:46:17;;;;;;;8.13;5.38;;;14.20;90.20;;;;;;5024623;28;20057;-60
2021/09/23 03:48:44;;;;;;;6.00;5.50;;;14.20;90.20;;;;;;5025048;28;20045;-60
2021/09/23 03:51:13;;;;;;;5.97;5.20;;;14.20;90.10;;;;;;5025773;28;20210;-60
2021/09/23 03:53:40;;;;;;;6.15;5.55;;;14.20;90.20;;;;;;5026291;28;20091;-60
2021/09/23 03:56:12;;;;;;;6.00;5.40;;;14.20;90.10;;;;;;5024706;28;20083;-60
2021/09/23 03:58:40;;;;;;;6.18;5.57;;;14.20;90.00;;;;;;5029666;28;20124;-60
2021/09/23 04:01:07;;;;;;;7.15;5.43;;;14.20;90.00;;;;;;5029222;28;20516;-60
2021/09/23 04:03:34;;;;;;;7.15;6.10;;;14.10;90.10;;;;;;5030125;28;20049;-60
2021/09/23 04:06:01;;;;;;;7.75;6.57;;;14.10;90.10;;;;;;5029459;28;20124;-60
2021/09/23 04:08:28;;;;;;;7.32;6.63;;;14.00;90.00;;;;;;5029859;28;20212;-60
2021/09/23 04:10:54;;;;;;;6.53;5.93;;;13.90;90.10;;;;;;5027445;28;20403;-60
2021/09/23 04:13:21;;;;;;;8.25;6.45;;;13.80;90.30;;;;;;5028989;28;20053;-60
2021/09/23 04:15:49;;;;;;;7.80;6.85;;;13.80;90.20;;;;;;5029322;28;20111;-60
2021/09/23 04:18:17;;;;;;;7.68;6.93;;;13.70;90.30;;;;;;5029489;28;20049;-60
2021/09/23 04:20:45;;;;;;;7.30;6.45;;;13.70;90.30;;;;;;5028854;28;20468;-60
2021/09/23 04:23:12;;;;;;;7.25;6.45;;;13.60;90.40;;;;;;5029410;28;20100;-60
2021/09/23 04:25:39;;;;;;;7.93;6.22;;;13.60;90.60;;;;;;5025888;28;20104;-60
2021/09/23 04:28:06;;;;;;;9.02;7.18;;;13.50;90.50;;;;;;5029125;28;20129;-60
2021/09/23 04:30:33;;;;;;;7.78;7.07;;;13.50;90.60;;;;;;5029222;28;20107;-60
2021/09/23 04:33:00;;;;;;;7.50;6.75;;;13.40;90.60;;;;;;5032082;28;20053;-60
2021/09/23 04:35:26;;;;;;;8.35;7.45;;;13.40;90.60;;;;;;5030508;28;20565;-60
2021/09/23 04:37:53;;;;;;;7.30;6.60;;;13.40;90.70;;;;;;5031267;28;20085;-60
2021/09/23 04:40:20;;;;;;;8.35;7.35;;;13.30;90.60;;;;;;5028449;28;20083;-60
2021/09/23 04:42:47;;;;;;;7.55;6.75;;;13.30;90.70;;;;;;5030077;28;20058;-60
2021/09/23 04:45:13;;;;;;;8.35;7.47;;;13.20;90.80;;;;;;5029923;28;20479;-60
2021/09/23 04:47:40;;;;;;;7.78;6.72;;;13.20;90.90;;;;;;5030731;28;20100;-60
2021/09/23 04:50:07;;;;;;;8.38;7.57;;;13.10;91.10;;;;;;5004637;28;20050;-60
2021/09/23 04:52:34;;;;;;;9.15;7.25;;;13.00;91.20;;;;;;5006568;28;20092;-60
2021/09/23 04:55:01;;;;;;;8.88;7.18;;;13.00;91.30;;;;;;5004000;28;20088;-60
2021/09/23 04:57:28;;;;;;;10.35;8.57;;;13.00;91.50;;;;;;5024842;28;20049;-60
2021/09/23 04:59:54;;;;;;;8.40;7.60;;;13.00;91.50;;;;;;5023487;28;20461;-60
2021/09/23 05:02:22;;;;;;;8.82;7.80;;;12.90;91.50;;;;;;5023503;28;20049;-60
2021/09/23 05:04:49;;;;;;;10.00;7.55;;;12.90;91.60;;;;;;5023782;28;20530;-60
2021/09/23 05:07:16;;;;;;;9.90;8.73;;;12.90;91.60;;;;;;5023986;28;20132;-60
2021/09/23 05:09:43;;;;;;;10.55;7.68;;;12.90;91.70;;;;;;5022924;28;20092;-60
2021/09/23 05:12:10;;;;;;;8.88;7.97;;;12.80;91.80;;;;;;5017247;28;20464;-60
2021/09/23 05:14:37;;;;;;;9.00;7.82;;;12.80;91.70;;;;;;5020421;28;20076;-61
2021/09/23 05:17:04;;;;;;;8.57;7.78;;;12.80;91.90;;;;;;5018859;28;20482;-60
2021/09/23 05:19:31;;;;;;;7.90;7.10;;;12.80;92.00;;;;;;5014704;28;20049;-60
2021/09/23 05:21:57;;;;;;;10.38;7.90;;;12.80;91.90;;;;;;5036030;28;20053;-60
2021/09/23 05:24:24;;;;;;;8.40;7.60;;;12.80;91.80;;;;;;5016308;28;20451;-60
2021/09/23 05:26:51;;;;;;;7.18;6.47;;;12.80;91.90;;;;;;5011392;28;20124;-60
2021/09/23 05:29:17;;;;;;;6.80;6.10;;;12.80;92.10;;;;;;5017386;28;20132;-60
2021/09/23 05:31:51;;;;;;;8.10;6.00;;;12.70;92.20;;;;;;5025670;28;20061;-60
2021/09/23 05:34:18;;;;;;;7.15;6.43;;;12.80;92.20;;;;;;5005694;28;20115;-60
2021/09/23 05:36:45;;;;;;;7.50;5.75;;;12.80;92.20;;;;;;4996833;28;20057;-60
2021/09/23 05:39:11;;;;;;;7.80;5.03;;;12.80;92.00;;;;;;4989855;28;20180;-60
2021/09/23 05:41:41;;;;;;;8.20;6.07;;;12.80;92.20;;;;;;4993567;28;20046;-60
2021/09/23 05:44:08;;;;;;;8.63;5.10;;;12.80;92.30;;;;;;5002023;28;20108;-60
2021/09/23 05:46:40;;;;;;;6.57;5.43;;;12.70;92.10;;;;;;5000844;28;20314;-61
2021/09/23 05:49:07;;;;;;;9.00;5.70;;;12.70;92.10;;;;;;5008565;28;20112;-61
2021/09/23 05:51:34;;;;;;;5.57;4.70;;;12.70;92.10;;;;;;5006958;28;20594;-60
2021/09/23 05:54:00;;;;;;;8.32;5.45;;;12.70;92.20;;;;;;5008947;28;20458;-60
2021/09/23 05:56:27;;;;;;;5.97;4.10;;;12.70;92.30;;;;;;5004660;28;20046;-61
2021/09/23 05:58:54;;;;;;;7.97;4.07;;;12.70;92.40;;;;;;5005189;28;20089;-60
2021/09/23 06:01:21;;;;;;;9.15;3.85;;;12.70;92.50;;;;;;5006961;28;20520;-60
2021/09/23 06:03:53;;;;;;;4.90;4.00;;;12.70;92.50;;;;;;5008691;28;20061;-60
2021/09/23 06:06:20;;;;;;;6.22;3.33;;;12.70;92.60;;;;;;5009868;28;20394;-60
2021/09/23 06:08:47;;;;;;;5.45;2.60;;;12.70;92.60;;;;;;4995507;28;20504;-61
2021/09/23 06:11:15;;;;;;;6.20;3.20;;;12.70;92.60;;;;;;4988131;28;20093;-61
2021/09/23 06:13:43;;;;;;;4.80;3.20;;;12.80;92.40;;;;;;4992900;28;20053;-61
2021/09/23 06:16:10;;;;;;;8.18;3.47;;;12.80;92.30;;;;;;4989395;28;20058;-60
2021/09/23 06:18:37;;;;;;;4.30;2.88;;;12.80;92.10;;;;;;4990079;28;20041;-60
2021/09/23 06:21:05;;;;;;;7.40;2.88;;;12.80;92.30;;;;;;4993317;28;20129;-60
2021/09/23 06:23:32;;;;;;;3.42;2.45;;;12.80;92.30;;;;;;4999675;28;20139;-61
2021/09/23 06:25:58;;;;;;;3.88;2.50;;;12.80;92.40;;;;;;4997018;28;20112;-60
2021/09/23 06:28:25;;;;;;;4.22;2.70;;;12.80;92.40;;;;;;4999708;28;20177;-60
2021/09/23 06:30:52;;;;;;;7.15;3.03;;;12.90;92.50;;;;;;4999415;28;20046;-61
2021/09/23 06:33:19;;;;;;;4.20;1.75;;;12.90;92.50;;;;;;5000172;28;20353;-60
2021/09/23 06:35:46;;;;;;;5.00;1.92;;;13.00;92.50;;;;;;4998935;28;20512;-60
2021/09/23 06:38:13;;;;;;;2.08;1.70;;;13.00;92.60;;;;;;4999850;28;20119;-61
2021/09/23 06:40:39;;;;;;;5.85;1.83;;;13.10;92.60;;;;;;4997133;28;20045;-60
2021/09/23 06:43:06;;;;;;;4.53;1.90;;;13.20;92.50;;;;;;4999831;28;20053;-61
2021/09/23 06:45:33;;;;;;;2.97;1.25;;;13.40;92.40;;;;;;5001403;28;20477;-61
2021/09/23 06:48:00;;;;;;;7.20;1.95;;;13.40;92.40;;;;;;5020444;28;20515;-60
2021/09/23 06:50:27;;;;;;;3.50;1.83;;;13.50;92.30;;;;;;5007908;28;20291;-60
2021/09/23 06:52:54;;;;;;;6.57;2.22;;;13.60;92.10;;;;;;5001513;28;20050;-61
2021/09/23 06:55:20;;;;;;;2.80;1.60;;;13.70;92.10;;;;;;4986255;28;20558;-61
2021/09/23 06:57:47;;;;;;;1.77;1.33;;;13.80;91.90;;;;;;5005231;28;20448;-60
2021/09/23 07:00:14;;;;;;;3.75;2.00;;;13.80;91.80;;;;;;5007890;28;20057;-61
2021/09/23 07:02:41;;;;;;;5.10;1.83;;;13.90;91.80;;;;;;5008160;28;20081;-61
2021/09/23 07:05:08;;;;;;;5.53;1.65;;;14.00;91.70;;;;;;5007097;28;20046;-61
2021/09/23 07:07:35;;;;;;;3.78;1.95;;;14.00;91.50;;;;;;5005934;28;20050;-61
2021/09/23 07:10:04;;;;;;;5.40;2.28;;;14.10;91.50;;;;;;5005921;28;20115;-60
2021/09/23 07:12:31;;;;;;;3.65;2.00;;;14.20;91.50;;;;;;5007731;28;20133;-59
2021/09/23 07:14:58;;;;;;;3.00;1.90;;;14.30;91.30;;;;;;5005679;28;20209;-59
2021/09/23 07:17:25;;;;;;;4.30;1.65;;;14.30;91.20;;;;;;5003107;28;20052;-59
2021/09/23 07:19:56;;;;;;;12.05;3.10;;;14.40;91.10;;;;;;4999218;28;20685;-61
2021/09/23 07:22:23;;;;;;;4.70;2.25;;;14.50;91.00;;;;;;5003692;28;20137;-62
2021/09/23 07:24:50;;;;;;;4.78;2.05;;;14.50;90.80;;;;;;4997164;28;20053;-61
2021/09/23 07:27:17;;;;;;;3.97;1.83;;;14.60;90.70;;;;;;4997004;28;20587;-61
2021/09/23 07:29:44;;;;;;;4.00;1.60;;;14.60;90.60;;;;;;4998668;28;20057;-61
2021/09/23 07:32:11;;;;;;;5.55;2.45;;;14.70;90.60;;;;;;4997107;28;20137;-61
2021/09/23 07:34:38;;;;;;;3.70;1.95;;;14.80;90.60;;;;;;5001479;28;20045;-61
2021/09/23 07:37:05;;;;;;;4.18;1.70;;;14.90;90.50;;;;;;5000006;28;20046;-61
2021/09/23 07:39:32;;;;;;;3.30;1.63;;;15.00;90.40;;;;;;4996519;28;20440;-59
2021/09/23 07:41:59;;;;;;;5.75;2.97;;;15.00;90.30;;;;;;4999232;28;20053;-59
2021/09/23 07:44:26;;;;;;;3.45;1.65;;;15.00;90.10;;;;;;5002640;28;20045;-59
2021/09/23 07:46:55;;;;;;;5.05;1.90;;;15.10;90.10;;;;;;5000548;28;20107;-59
2021/09/23 07:49:22;;;;;;;4.40;2.90;;;15.20;90.20;;;;;;4999175;28;20053;-59
2021/09/23 07:51:48;;;;;;;4.22;1.90;;;15.20;90.20;;;;;;5000103;28;20165;-59
2021/09/23 07:54:15;;;;;;;3.45;1.70;;;15.30;89.70;;;;;;4997939;28;20406;-60
2021/09/23 07:56:43;;;;;;;5.40;2.10;;;15.30;89.60;;;;;;4999985;28;20095;-60
2021/09/23 07:59:10;;;;;;;5.10;2.08;;;15.40;89.40;;;;;;4999899;28;20519;-59
2021/09/23 08:01:37;;;;;;;6.10;2.05;;;15.40;89.40;;;;;;4992242;28;20141;-60
2021/09/23 08:04:04;;;;;;;6.75;2.47;;;15.40;88.90;;;;;;4997095;28;20054;-60
2021/09/23 08:06:32;;;;;;;6.68;1.80;;;15.50;89.10;;;;;;4997725;28;20269;-59
2021/09/23 08:08:58;;;;;;;7.20;2.83;;;15.50;89.20;;;;;;5000865;28;20057;-60
2021/09/23 08:11:25;;;;;;;5.10;1.85;;;15.60;89.30;;;;;;5001986;28;20628;-60
2021/09/23 08:13:52;;;;;;;3.60;1.98;;;15.60;89.10;;;;;;4995683;28;20398;-60
2021/09/23 08:16:19;;;;;;;4.65;2.00;;;15.70;88.60;;;;;;4998236;28;20447;-60
2021/09/23 08:18:46;;;;;;;3.75;2.28;;;15.70;88.60;;;;;;4999966;28;20090;-60
2021/09/23 08:21:13;;;;;;;6.57;1.95;;;15.80;88.20;;;;;;5002136;28;20089;-60
2021/09/23 08:23:39;;;;;;;3.35;1.67;;;15.80;88.40;;;;;;4996686;28;20041;-60
2021/09/23 08:26:22;;;;;;;5.57;2.70;;;15.80;87.90;;;;;;5001675;28;20129;-59
2021/09/23 08:28:52;;;;;;;3.55;1.90;;;15.80;88.00;;;;;;5000509;28;20303;-60
2021/09/23 08:31:20;;;;;;;5.45;1.92;;;15.80;87.90;;;;;;4999579;28;20132;-60
2021/09/23 08:33:47;;;;;;;4.10;1.90;;;15.80;87.80;;;;;;4998214;28;20069;-60
2021/09/23 08:36:14;;;;;;;7.22;2.28;;;15.90;88.30;;;;;;5000981;28;20132;-60
2021/09/23 08:38:41;;;;;;;5.85;1.88;;;15.90;88.20;;;;;;4999651;28;20058;-60
2021/09/23 08:41:08;;;;;;;4.68;1.92;;;16.00;87.50;;;;;;4997603;28;20501;-60
2021/09/23 08:43:34;;;;;;;5.20;2.15;;;16.00;87.80;;;;;;4999203;28;20149;-60
2021/09/23 08:46:04;;;;;;;4.00;1.80;;;16.10;87.70;;;;;;4998983;28;20066;-60
2021/09/23 08:48:31;;;;;;;4.25;2.60;;;16.10;87.40;;;;;;5001365;28;20485;-60
2021/09/23 08:50:58;;;;;;;4.63;1.83;;;16.10;87.30;;;;;;4997973;28;20144;-60
2021/09/23 08:53:30;;;;;;;7.88;2.03;;;16.10;87.00;;;;;;5000884;28;20052;-60
2021/09/23 08:55:57;;;;;;;4.75;1.95;;;16.10;87.30;;;;;;5001261;28;20050;-60
2021/09/23 08:58:26;;;;;;;2.90;1.77;;;16.20;87.60;;;;;;5001859;28;20431;-60
2021/09/23 09:01:09;;;;;;;2.92;1.77;;;16.20;87.30;;;;;;5001253;28;20204;-60
2021/09/23 09:03:37;;;;;;;;;;;16.20;86.80;;;;;;4998304;28;20081;-60
2021/09/23 09:06:09;;;;;;;4.85;1.90;;;16.30;86.80;;;;;;4999382;28;19928;-60
2021/09/23 09:08:37;;;;;;;6.25;2.45;;;16.30;87.00;;;;;;4997693;28;20054;-60
2021/09/23 09:11:05;;;;;;;4.93;1.73;;;16.50;87.20;;;;;;4993271;28;20049;-60
2021/09/23 09:13:41;;;;;;;4.00;1.60;;;16.70;86.80;;;;;;4994109;28;20073;-60
2021/09/23 09:16:14;;;;;;;3.47;2.10;;;16.80;86.00;;;;;;4993002;28;20391;-60
2021/09/23 09:18:45;;;;;;;4.65;1.67;;;16.90;86.10;;;;;;4992862;28;20354;-60
2021/09/23 09:21:13;;;;;;;2.67;1.50;;;16.90;85.10;;;;;;4998841;28;20133;-60
2021/09/23 09:23:51;;;;;;;6.22;2.47;;;16.90;85.60;;;;;;4994529;28;20366;-60
2021/09/23 09:26:27;;;;;;;5.03;1.98;;;16.90;85.40;;;;;;4995370;28;20128;-61
2021/09/23 09:28:56;;;;;;;4.65;2.25;;;16.90;85.40;;;;;;4998346;28;20092;-59
2021/09/23 09:31:23;;;;;;;6.55;2.65;;;16.90;85.40;;;;;;4998050;28;20133;-59
2021/09/23 09:33:52;;;;;;;4.70;2.22;;;16.90;85.80;;;;;;4996671;28;20054;-59
2021/09/23 09:36:32;;;;;;;6.80;2.15;;;16.90;86.10;;;;;;5000046;28;20140;-59
2021/09/23 09:39:06;;;;;;;4.13;1.67;;;17.00;86.10;;;;;;4999801;28;20053;-59
2021/09/23 09:41:35;;;;;;;6.40;1.90;;;17.10;85.50;;;;;;4989298;28;20089;-59
2021/09/23 09:44:04;;;;;;;7.15;2.33;;;17.10;85.50;;;;;;5000622;28;20463;-59
2021/09/23 09:46:33;;;;;;;4.93;2.10;;;17.20;85.10;;;;;;4992292;28;20536;-59
2021/09/23 09:49:01;;;;;;;2.72;1.65;;;17.30;85.30;;;;;;4994539;28;20620;-59
2021/09/23 09:51:46;;;;;;;5.22;2.55;;;17.30;85.20;;;;;;4997092;28;20523;-59
2021/09/23 09:54:14;;;;;;;5.78;2.17;;;17.50;84.60;;;;;;4997227;28;20579;-59
2021/09/23 09:56:43;;;;;;;3.95;1.65;;;17.60;84.90;;;;;;4994769;28;20058;-59
2021/09/23 09:59:14;;;;;;;6.25;2.00;;;17.60;84.40;;;;;;4993806;28;20616;-60
2021/09/23 10:01:43;;;;;;;4.07;2.25;;;17.70;84.80;;;;;;4996906;28;20045;-59
2021/09/23 10:04:11;;;;;;;4.68;1.90;;;17.80;84.10;;;;;;4998919;28;20496;-59
2021/09/23 10:06:39;;;;;;;5.72;2.25;;;17.80;84.00;;;;;;4998384;28;20129;-59
2021/09/23 10:09:06;;;;;;;6.57;2.80;;;17.80;84.40;;;;;;4999688;28;20061;-59
2021/09/23 10:11:33;;;;;;;3.78;2.08;;;17.90;84.80;;;;;;4997410;28;20148;-59
2021/09/23 10:14:00;;;;;;;3.00;1.75;;;18.10;83.40;;;;;;4998207;28;20402;-59
2021/09/23 10:16:27;;;;;;;6.13;2.30;;;18.30;82.80;;;;;;4996861;28;20119;-62
2021/09/23 10:18:55;;;;;;;8.30;2.00;;;18.50;81.40;;;;;;4998510;28;20054;-59
2021/09/23 10:21:22;;;;;;;4.78;2.28;;;18.60;81.90;;;;;;5000059;28;20535;-59
2021/09/23 10:23:48;;;;;;;6.35;2.25;;;18.80;81.20;;;;;;4999885;28;20133;-59
2021/09/23 10:26:16;;;;;;;6.38;2.20;;;18.80;80.90;;;;;;4995189;28;20078;-59
2021/09/23 10:28:46;;;;;;;4.55;2.03;;;18.80;80.50;;;;;;4987587;28;20057;-59
2021/09/23 10:31:18;;;;;;;5.97;2.10;;;18.80;80.60;;;;;;4998372;28;20466;-59
2021/09/23 10:33:46;;;;;;;4.40;1.95;;;18.80;80.70;;;;;;4999136;28;20045;-59
2021/09/23 10:36:13;;;;;;;5.82;1.73;;;18.80;80.90;;;;;;4993218;28;20451;-59
2021/09/23 10:38:40;;;;;;;3.92;1.60;;;18.80;80.80;;;;;;4968862;28;20558;-59
2021/09/23 10:41:07;;;;;;;4.65;2.17;;;18.80;81.30;;;;;;4997545;28;20444;-59
2021/09/23 10:43:35;;;;;;;4.68;2.08;;;18.90;80.20;;;;;;4990480;28;20145;-59
2021/09/23 10:46:02;;;;;;;5.20;1.92;;;19.00;79.70;;;;;;4990931;28;20042;-59
2021/09/23 10:48:32;;;;;;;5.22;1.60;;;19.10;80.00;;;;;;5008739;28;20071;-59
2021/09/23 10:50:59;;;;;;;6.57;1.83;;;19.40;79.20;;;;;;5000252;28;20074;-59
2021/09/23 10:53:26;;;;;;;3.53;1.77;;;19.40;78.80;;;;;;5000983;28;20108;-59
2021/09/23 10:55:53;;;;;;;6.03;2.17;;;19.50;79.20;;;;;;4999912;28;20105;-59
2021/09/23 10:58:21;;;;;;;7.85;1.83;;;19.40;79.20;;;;;;4982275;28;20046;-59
2021/09/23 11:00:48;;;;;;;2.80;1.60;;;19.50;79.10;;;;;;4981591;28;20112;-59
2021/09/23 11:03:15;;;;;;;4.53;1.75;;;19.60;78.80;;;;;;4997822;28;20259;-59
2021/09/23 11:05:43;;;;;;;3.78;1.70;;;19.70;78.30;;;;;;4999713;28;20058;-59
2021/09/23 11:08:10;;;;;;;5.88;1.65;;;19.70;78.10;;;;;;4995544;28;20057;-59
2021/09/23 11:10:42;;;;;;;3.75;1.58;;;19.90;78.10;;;;;;4997425;28;20253;-59
2021/09/23 11:13:10;;;;;;;4.10;1.30;;;19.90;77.10;;;;;;4994721;28;20038;-59
2021/09/23 11:15:41;;;;;;;4.55;1.73;;;20.00;77.40;;;;;;4989179;28;20149;-59
2021/09/23 11:18:09;;;;;;;5.75;1.85;;;20.10;77.70;;;;;;4998296;28;20118;-59
2021/09/23 11:20:36;;;;;;;4.93;1.40;;;20.10;77.10;;;;;;4991796;28;20077;-59
2021/09/23 11:23:04;;;;;;;5.18;1.40;;;20.20;77.30;;;;;;4983372;28;20452;-59
2021/09/23 11:25:34;;;;;;;6.72;1.67;;;20.40;76.90;;;;;;4984297;28;20058;-59
2021/09/23 11:28:01;;;;;;;2.78;1.60;;;20.50;76.50;;;;;;4995504;28;20058;-59
2021/09/23 11:30:31;;;;;;;6.03;2.00;;;20.60;75.60;;;;;;4992590;28;20085;-60
2021/09/23 11:33:10;;;;;;;4.68;1.92;;;20.80;76.10;;;;;;5002512;28;20054;-59
2021/09/23 11:35:39;;;;;;;5.97;1.88;;;20.90;75.60;;;;;;5003185;28;20053;-59
2021/09/23 11:38:07;;;;;;;6.85;1.90;;;21.10;75.10;;;;;;5004206;28;20053;-59
2021/09/23 11:40:38;;;;;;;7.85;1.73;;;21.20;74.90;;;;;;4999737;28;20081;-59
2021/09/23 11:43:09;;;;;;;4.97;1.80;;;21.30;73.80;;;;;;5004311;28;20053;-59
2021/09/23 11:45:40;;;;;;;5.15;1.98;;;21.40;74.20;;;;;;5002280;28;20042;-59
2021/09/23 11:48:14;;;;;;;4.90;1.80;;;21.60;74.30;;;;;;5003472;28;20128;-60
2021/09/23 11:50:45;;;;;;;6.70;2.35;;;21.90;72.10;;;;;;5001039;28;20089;-59
2021/09/23 11:53:14;;;;;;;5.00;2.15;;;21.60;71.70;;;;;;5003641;28;20445;-60
2021/09/23 11:55:41;;;;;;;4.78;2.35;;;21.60;72.00;;;;;;4999464;28;20057;-59
2021/09/23 11:58:13;;;;;;;3.63;1.50;;;21.60;73.70;;;;;;4991074;28;20054;-60
2021/09/23 12:00:48;;;;;;;4.65;1.67;;;21.70;72.10;;;;;;4992207;28;20104;-59
2021/09/23 12:03:16;;;;;;;5.18;1.63;;;21.90;72.80;;;;;;4999566;28;20046;-59
2021/09/23 12:05:44;;;;;;;4.78;1.80;;;22.10;71.90;;;;;;4992350;28;20140;-60
2021/09/23 12:08:20;;;;;;;6.32;1.50;;;22.20;71.30;;;;;;4990285;28;20086;-59
2021/09/23 12:10:57;;;;;;;5.75;1.70;;;22.20;71.30;;;;;;4994460;28;20050;-59
2021/09/23 12:13:37;;;;;;;4.32;1.80;;;22.00;70.70;;;;;;4992603;28;20093;-59
2021/09/23 12:16:13;;;;;;;5.50;2.13;;;21.70;71.70;;;;;;4987649;28;20410;-59
2021/09/23 12:18:41;;;;;;;4.35;1.80;;;21.60;73.50;;;;;;4987394;28;20210;-59
2021/09/23 12:21:09;;;;;;;5.47;2.40;;;21.40;73.10;;;;;;4995106;28;20140;-59
2021/09/23 12:23:48;;;;;;;4.60;1.77;;;21.40;73.80;;;;;;4994585;28;20468;-59
2021/09/23 12:26:30;;;;;;;4.63;1.50;;;21.40;73.80;;;;;;4998549;28;20045;-60
2021/09/23 12:29:03;;;;;;;6.07;1.92;;;21.50;73.60;;;;;;5000436;28;20140;-59
2021/09/23 12:31:34;;;;;;;2.85;1.50;;;21.50;74.00;;;;;;5001266;28;20058;-60
2021/09/23 12:34:09;;;;;;;5.20;1.80;;;21.40;73.50;;;;;;5002200;28;20167;-60
2021/09/23 12:36:43;;;;;;;5.28;1.90;;;21.30;74.60;;;;;;4999100;28;20081;-59
2021/09/23 12:39:19;;;;;;;4.53;1.88;;;21.30;74.60;;;;;;4984373;28;20136;-59
2021/09/23 12:41:52;;;;;;;5.22;1.50;;;21.40;74.70;;;;;;4997556;28;20057;-60
2021/09/23 12:44:20;;;;;;;;;;;21.60;73.30;;;;;;4999509;28;20050;-59
2021/09/23 12:47:05;;;;;;;;;;;21.60;73.10;;;;;;4995286;28;19940;-60
2021/09/23 12:49:32;;;;;;;;;;;21.80;72.80;;;;;;4990482;28;19964;-59
2021/09/23 12:52:31;;;;;;;;;;;22.20;72.50;;;;;;4998017;28;20024;-60
2021/09/23 12:55:04;;;;;;;;;;;22.80;69.60;;;;;;4985756;28;19979;-60
2021/09/23 12:57:36;;;;;;;;;;;23.40;67.40;;;;;;4997123;28;20633;-60